Time;durP1;ratioP1;P1;durP2;ratioP2;P2;SDS_P1;SDS_P2;PMS_P1;PMS_P2;Temp;Humidity;BMP_temperature;BMP_pressure;BME280_temperature;BME280_humidity;BME280_pressure;Samples;Min_cycle;Max_cycle;Signal;HPM_P1;HPM_P2
2023/08/08 00:00:00;;;;;;;3.40;2.15;;;14.40;99.90;;;;;;6329607;28;20048;-82
2023/08/08 00:03:02;;;;;;;3.28;2.00;;;14.30;99.90;;;;;;6329714;28;20051;-82
2023/08/08 00:06:03;;;;;;;3.65;2.42;;;14.40;99.90;;;;;;6329971;28;20048;-81
2023/08/08 00:09:06;;;;;;;3.13;2.03;;;14.40;99.90;;;;;;6328230;28;20507;-81
2023/08/08 00:12:09;;;;;;;6.05;2.10;;;14.40;99.90;;;;;;6329734;28;20052;-82
2023/08/08 00:15:11;;;;;;;5.45;2.08;;;14.40;99.90;;;;;;6329329;28;20055;-82
2023/08/08 00:18:13;;;;;;;3.70;1.73;;;14.50;99.90;;;;;;6328657;28;20055;-80
2023/08/08 00:21:15;;;;;;;3.78;1.98;;;14.50;99.90;;;;;;6328602;28;20044;-82
2023/08/08 00:24:16;;;;;;;8.43;2.40;;;14.50;99.90;;;;;;6329223;28;20054;-80
2023/08/08 00:27:19;;;;;;;2.58;1.90;;;14.60;99.90;;;;;;6323095;28;20059;-80
2023/08/08 00:30:21;;;;;;;2.28;1.83;;;14.60;99.90;;;;;;6304497;28;20055;-80
2023/08/08 00:33:23;;;;;;;1.95;1.75;;;14.70;99.90;;;;;;6302643;28;20048;-80
2023/08/08 00:36:24;;;;;;;4.93;2.65;;;14.70;99.90;;;;;;6306778;28;20051;-79
2023/08/08 00:39:26;;;;;;;3.55;1.98;;;14.80;99.90;;;;;;6303194;28;20080;-81
2023/08/08 00:42:29;;;;;;;2.40;1.85;;;14.80;99.90;;;;;;6303936;28;20056;-83
2023/08/08 00:45:31;;;;;;;3.47;1.88;;;14.90;99.90;;;;;;6305965;28;20048;-82
2023/08/08 00:48:33;;;;;;;5.78;2.03;;;14.80;99.90;;;;;;6319172;28;20044;-81
2023/08/08 00:51:35;;;;;;;3.08;2.67;;;15.00;99.90;;;;;;6341734;28;20073;-83
2023/08/08 00:54:37;;;;;;;2.25;2.00;;;15.00;99.90;;;;;;6342452;28;20060;-80
2023/08/08 00:57:41;;;;;;;2.13;1.77;;;15.00;99.90;;;;;;6341307;28;20116;-81
2023/08/08 01:00:43;;;;;;;4.07;1.83;;;15.00;99.90;;;;;;6341485;28;20059;-81
2023/08/08 01:03:45;;;;;;;5.10;2.08;;;14.90;99.90;;;;;;6341397;28;20040;-81
2023/08/08 01:06:56;;;;;;;5.35;1.90;;;14.90;99.90;;;;;;6340288;28;20040;-83
2023/08/08 01:10:07;;;;;;;2.47;2.13;;;14.80;99.90;;;;;;6332338;28;20041;-81
2023/08/08 01:13:14;;;;;;;2.85;2.20;;;14.70;99.90;;;;;;6339892;28;20052;-82
2023/08/08 01:16:16;;;;;;;4.00;2.27;;;14.60;99.90;;;;;;6340640;28;20052;-84
2023/08/08 01:19:26;;;;;;;4.03;2.15;;;14.50;99.90;;;;;;6340118;28;20054;-81
2023/08/08 01:22:36;;;;;;;2.33;1.85;;;14.50;99.90;;;;;;6341560;28;20054;-80
2023/08/08 01:25:40;;;;;;;2.20;1.90;;;14.40;99.90;;;;;;6340642;28;20047;-82
2023/08/08 01:28:43;;;;;;;3.05;2.13;;;14.40;99.90;;;;;;6323284;28;20044;-80
2023/08/08 01:31:45;;;;;;;2.03;1.85;;;14.30;99.90;;;;;;6315645;28;20054;-83
2023/08/08 01:34:47;;;;;;;4.60;2.33;;;14.30;99.90;;;;;;6315988;28;20124;-81
2023/08/08 01:37:51;;;;;;;5.63;2.35;;;14.40;99.90;;;;;;6315894;28;20041;-82
2023/08/08 01:40:57;;;;;;;4.45;2.33;;;14.30;99.90;;;;;;6315260;28;20124;-81
2023/08/08 01:43:59;;;;;;;2.13;1.80;;;14.40;99.90;;;;;;6316615;28;20115;-81
2023/08/08 01:47:01;;;;;;;7.03;2.10;;;14.30;99.90;;;;;;6316058;28;20048;-81
2023/08/08 01:50:03;;;;;;;3.08;2.50;;;14.20;99.90;;;;;;6316393;28;20104;-81
2023/08/08 01:53:05;;;;;;;3.25;2.72;;;14.10;99.90;;;;;;6314779;28;20040;-81
2023/08/08 01:56:08;;;;;;;5.78;2.28;;;14.10;99.90;;;;;;6314880;28;20119;-81
2023/08/08 01:59:10;;;;;;;5.20;2.47;;;14.00;99.90;;;;;;6314084;28;20076;-83
2023/08/08 02:02:12;;;;;;;5.85;2.53;;;13.90;99.90;;;;;;6315663;28;20099;-80
2023/08/08 02:05:13;;;;;;;3.88;2.80;;;13.80;99.90;;;;;;6315507;28;20047;-81
2023/08/08 02:08:15;;;;;;;3.28;2.72;;;13.70;99.90;;;;;;6315021;28;20048;-82
2023/08/08 02:11:18;;;;;;;3.80;2.92;;;13.70;99.90;;;;;;6314945;28;20426;-81
2023/08/08 02:14:20;;;;;;;4.20;3.35;;;13.70;99.90;;;;;;6316024;28;20105;-81
2023/08/08 02:17:22;;;;;;;7.60;2.67;;;13.70;99.90;;;;;;6315795;28;20044;-85
2023/08/08 02:20:24;;;;;;;4.97;2.20;;;13.80;99.90;;;;;;6314660;28;20049;-82
2023/08/08 02:23:26;;;;;;;3.10;2.50;;;13.80;99.90;;;;;;6315340;28;20044;-82
2023/08/08 02:26:29;;;;;;;4.80;2.38;;;13.80;99.90;;;;;;6314062;28;20045;-82
2023/08/08 02:29:31;;;;;;;2.63;2.33;;;13.90;99.90;;;;;;6338597;28;20051;-84
2023/08/08 02:32:32;;;;;;;6.18;2.63;;;13.80;99.90;;;;;;6339516;28;20052;-81
2023/08/08 02:35:34;;;;;;;5.65;2.85;;;13.90;99.90;;;;;;6339068;28;20145;-83
2023/08/08 02:38:36;;;;;;;3.67;2.20;;;13.90;99.90;;;;;;6338050;28;20067;-82
2023/08/08 02:41:39;;;;;;;4.95;3.22;;;13.90;99.90;;;;;;6338783;28;20100;-81
2023/08/08 02:44:40;;;;;;;29.17;3.45;;;13.90;99.90;;;;;;6334287;28;20050;-82
2023/08/08 02:47:42;;;;;;;4.93;3.25;;;13.90;99.90;;;;;;6338835;28;20040;-81
2023/08/08 02:50:44;;;;;;;7.22;2.63;;;13.90;99.90;;;;;;6339581;28;20048;-81
2023/08/08 02:53:46;;;;;;;5.82;2.50;;;14.00;99.90;;;;;;6338015;28;20103;-82
2023/08/08 02:56:49;;;;;;;4.15;2.33;;;14.00;99.90;;;;;;6338622;28;20048;-81
2023/08/08 02:59:51;;;;;;;8.68;3.20;;;14.00;99.90;;;;;;6338423;28;20063;-82
2023/08/08 03:02:53;;;;;;;10.32;2.40;;;14.00;99.90;;;;;;6330611;28;20052;-80
2023/08/08 03:05:54;;;;;;;5.72;3.40;;;14.00;99.90;;;;;;6324970;28;20418;-80
2023/08/08 03:08:56;;;;;;;5.65;2.78;;;14.00;99.90;;;;;;6324591;28;20418;-79
2023/08/08 03:11:59;;;;;;;4.25;2.08;;;14.00;99.90;;;;;;6325254;28;20044;-78
2023/08/08 03:15:01;;;;;;;7.95;2.53;;;14.00;99.90;;;;;;6320123;28;20056;-81
2023/08/08 03:18:03;;;;;;;8.77;3.17;;;14.00;99.90;;;;;;6325116;28;20047;-81
2023/08/08 03:21:04;;;;;;;6.05;3.05;;;14.10;99.90;;;;;;6324882;28;20139;-79
2023/08/08 03:24:06;;;;;;;2.92;2.63;;;14.10;99.90;;;;;;6326444;28;20047;-80
2023/08/08 03:27:09;;;;;;;2.60;2.40;;;14.20;99.90;;;;;;6325675;28;20041;-80
2023/08/08 03:30:12;;;;;;;3.45;2.60;;;14.20;99.90;;;;;;6304563;28;20052;-81
2023/08/08 03:33:14;;;;;;;3.88;2.50;;;14.30;99.90;;;;;;6304307;28;20048;-81
2023/08/08 03:36:16;;;;;;;3.15;2.33;;;14.30;99.90;;;;;;6305225;28;20047;-80
2023/08/08 03:39:18;;;;;;;2.83;2.15;;;14.40;99.90;;;;;;6303934;28;20040;-81
2023/08/08 03:42:21;;;;;;;6.00;2.20;;;14.40;99.90;;;;;;6304778;28;20051;-81
2023/08/08 03:45:22;;;;;;;4.57;2.13;;;14.40;99.90;;;;;;6305553;28;20048;-79
2023/08/08 03:48:24;;;;;;;3.38;2.30;;;14.50;99.90;;;;;;6303823;28;20049;-80
2023/08/08 03:51:26;;;;;;;2.63;2.42;;;14.50;99.90;;;;;;6304146;28;20041;-79
2023/08/08 03:54:27;;;;;;;2.92;2.22;;;14.50;99.90;;;;;;6304562;28;20056;-81
2023/08/08 03:57:30;;;;;;;3.40;2.50;;;14.50;99.90;;;;;;6328553;28;20056;-80
2023/08/08 04:00:32;;;;;;;6.63;2.20;;;14.60;99.90;;;;;;6317083;28;20087;-79
2023/08/08 04:03:34;;;;;;;2.50;2.15;;;14.60;99.90;;;;;;6314349;28;20124;-80
2023/08/08 04:06:36;;;;;;;2.70;1.77;;;14.60;99.90;;;;;;6314498;28;20051;-80
2023/08/08 04:09:38;;;;;;;3.60;2.15;;;14.60;99.90;;;;;;6313294;28;20058;-81
2023/08/08 04:12:41;;;;;;;3.17;2.13;;;14.50;99.90;;;;;;6315036;28;20049;-79
2023/08/08 04:15:43;;;;;;;3.40;2.40;;;14.50;99.90;;;;;;6315361;28;20096;-80
2023/08/08 04:18:45;;;;;;;5.40;2.50;;;14.40;99.90;;;;;;6315474;28;20064;-80
2023/08/08 04:21:46;;;;;;;5.45;2.22;;;14.50;99.90;;;;;;6315162;28;20063;-80
2023/08/08 04:24:48;;;;;;;9.23;2.13;;;14.50;99.90;;;;;;6313595;28;20389;-79
2023/08/08 04:27:51;;;;;;;2.20;2.00;;;14.50;99.90;;;;;;6314217;28;20060;-79
2023/08/08 04:30:53;;;;;;;1.50;1.40;;;14.50;99.90;;;;;;6315292;28;20044;-80
2023/08/08 04:33:58;;;;;;;2.33;2.13;;;14.50;99.90;;;;;;6315247;28;20059;-79
2023/08/08 04:37:00;;;;;;;3.28;2.67;;;14.50;99.90;;;;;;6313047;28;20051;-79
2023/08/08 04:40:02;;;;;;;4.13;1.90;;;14.50;99.90;;;;;;6312568;28;20052;-80
2023/08/08 04:43:05;;;;;;;2.17;1.60;;;14.60;99.90;;;;;;6304807;28;20145;-79
2023/08/08 04:46:06;;;;;;;4.53;2.00;;;14.70;99.90;;;;;;6304825;28;20360;-79
2023/08/08 04:49:08;;;;;;;2.65;2.08;;;14.70;99.90;;;;;;6302078;28;20045;-79
2023/08/08 04:52:10;;;;;;;3.75;2.00;;;14.80;99.90;;;;;;6302832;28;20055;-80
2023/08/08 04:55:11;;;;;;;3.72;1.92;;;14.80;99.90;;;;;;6301669;28;20056;-81
2023/08/08 04:58:15;;;;;;;3.33;2.10;;;14.90;99.90;;;;;;6301522;28;20137;-81
2023/08/08 05:01:17;;;;;;;2.30;1.77;;;14.90;99.90;;;;;;6301152;28;20049;-81
2023/08/08 05:04:19;;;;;;;3.17;2.05;;;14.90;99.90;;;;;;6301298;28;20135;-81
2023/08/08 05:07:21;;;;;;;2.65;1.92;;;15.10;99.90;;;;;;6312007;28;20052;-80
2023/08/08 05:10:22;;;;;;;3.03;2.05;;;15.20;99.90;;;;;;6304009;28;20049;-80
2023/08/08 05:13:25;;;;;;;3.25;1.65;;;15.30;99.90;;;;;;6315991;28;20044;-81
2023/08/08 05:16:27;;;;;;;2.20;2.00;;;15.30;99.90;;;;;;6325601;28;20506;-82
2023/08/08 05:19:29;;;;;;;2.05;1.83;;;15.20;99.90;;;;;;6326066;28;20515;-80
2023/08/08 05:22:31;;;;;;;2.22;1.80;;;15.20;99.90;;;;;;6326357;28;20439;-81
2023/08/08 05:25:32;;;;;;;3.28;1.60;;;15.20;99.90;;;;;;6298096;28;20540;-79
2023/08/08 05:28:35;;;;;;;9.07;2.17;;;15.30;99.90;;;;;;6307052;28;20044;-81
2023/08/08 05:31:37;;;;;;;4.22;1.65;;;15.40;99.90;;;;;;6303573;28;20063;-79
2023/08/08 05:34:39;;;;;;;3.55;1.70;;;15.50;99.90;;;;;;6322988;28;20048;-82
2023/08/08 05:37:40;;;;;;;3.83;1.83;;;15.70;99.90;;;;;;6322453;28;20051;-80
2023/08/08 05:40:42;;;;;;;1.83;1.67;;;16.00;99.90;;;;;;6318417;28;20040;-81
2023/08/08 05:43:45;;;;;;;2.33;2.13;;;16.30;99.90;;;;;;6325698;28;20099;-80
2023/08/08 05:46:47;;;;;;;3.58;1.85;;;16.40;99.90;;;;;;6328116;28;20460;-79
2023/08/08 05:49:49;;;;;;;3.15;1.77;;;16.60;99.90;;;;;;6327066;28;20048;-79
2023/08/08 05:52:50;;;;;;;2.42;1.55;;;16.70;99.90;;;;;;6332438;28;20507;-80
2023/08/08 05:55:52;;;;;;;2.20;1.58;;;16.80;99.90;;;;;;6333268;28;20055;-80
2023/08/08 05:58:55;;;;;;;3.25;1.95;;;16.90;99.90;;;;;;6330946;28;20047;-80
2023/08/08 06:01:58;;;;;;;1.85;1.60;;;16.90;99.90;;;;;;6328102;28;20058;-80
2023/08/08 06:05:00;;;;;;;2.25;1.42;;;17.10;99.90;;;;;;6317887;28;20052;-82
2023/08/08 06:08:02;;;;;;;6.15;1.67;;;17.70;99.90;;;;;;6299261;28;20052;-80
2023/08/08 06:11:03;;;;;;;2.92;1.40;;;18.10;99.90;;;;;;6300710;28;20054;-78
2023/08/08 06:14:06;;;;;;;5.78;1.90;;;18.70;99.90;;;;;;6300494;28;20526;-77
2023/08/08 06:17:08;;;;;;;3.33;1.40;;;19.40;99.90;;;;;;6299843;28;20120;-79
2023/08/08 06:20:10;;;;;;;1.45;1.25;;;20.20;99.90;;;;;;6299565;28;20067;-78
2023/08/08 06:23:12;;;;;;;1.98;1.40;;;20.70;99.90;;;;;;6299548;28;20041;-78
2023/08/08 06:26:14;;;;;;;4.15;1.55;;;21.40;99.90;;;;;;6299315;28;20570;-79
2023/08/08 06:29:17;;;;;;;3.05;1.70;;;21.80;98.30;;;;;;6299199;28;20048;-79
2023/08/08 06:32:19;;;;;;;17.42;2.20;;;22.10;96.90;;;;;;6307595;28;20055;-80
2023/08/08 06:35:20;;;;;;;4.82;2.42;;;22.70;95.30;;;;;;6309954;28;20040;-80
2023/08/08 06:38:22;;;;;;;2.45;1.25;;;22.80;94.10;;;;;;6329690;28;20136;-79
2023/08/08 06:41:24;;;;;;;2.75;1.25;;;23.30;93.10;;;;;;6327209;28;20055;-80
2023/08/08 06:44:27;;;;;;;4.85;1.27;;;23.60;92.00;;;;;;6325133;28;20052;-79
2023/08/08 06:47:29;;;;;;;2.10;1.48;;;24.20;91.00;;;;;;6323850;28;20043;-79
2023/08/08 06:50:30;;;;;;;2.92;1.40;;;24.30;89.10;;;;;;6323265;28;20139;-80
2023/08/08 06:53:32;;;;;;;1.92;1.00;;;24.50;87.50;;;;;;6321771;28;20059;-80
2023/08/08 06:56:34;;;;;;;1.65;0.90;;;24.60;85.10;;;;;;6324246;28;20046;-80
2023/08/08 06:59:37;;;;;;;1.83;1.00;;;24.60;83.80;;;;;;6327558;28;20047;-80
2023/08/08 07:02:39;;;;;;;2.95;1.38;;;24.50;82.50;;;;;;6326181;28;20144;-79
2023/08/08 07:05:40;;;;;;;3.38;1.00;;;24.70;81.90;;;;;;6318012;28;20050;-79
2023/08/08 07:08:42;;;;;;;2.25;1.13;;;24.50;80.40;;;;;;6329500;28;20052;-79
2023/08/08 07:11:44;;;;;;;2.05;1.30;;;24.80;80.40;;;;;;6329333;28;20473;-79
2023/08/08 07:14:47;;;;;;;2.25;1.25;;;25.20;78.50;;;;;;6331155;28;20044;-79
2023/08/08 07:17:49;;;;;;;2.53;1.35;;;25.50;77.10;;;;;;6333888;28;20040;-78
2023/08/08 07:20:51;;;;;;;1.00;0.85;;;25.60;74.80;;;;;;6313721;28;20127;-79
2023/08/08 07:23:52;;;;;;;1.35;1.10;;;25.40;75.20;;;;;;6310497;28;20048;-80
2023/08/08 07:26:54;;;;;;;1.42;0.77;;;25.70;74.30;;;;;;6310505;28;20045;-79
2023/08/08 07:29:57;;;;;;;3.33;1.30;;;25.90;73.30;;;;;;6329159;28;20051;-80
2023/08/08 07:32:59;;;;;;;6.20;1.90;;;26.00;72.90;;;;;;6320883;28;20044;-77
2023/08/08 07:36:00;;;;;;;1.45;0.98;;;26.20;71.40;;;;;;6319055;28;20044;-78
2023/08/08 07:39:02;;;;;;;3.55;1.40;;;26.20;70.10;;;;;;6327167;28;20064;-80
2023/08/08 07:42:04;;;;;;;4.75;2.33;;;25.80;70.10;;;;;;6313241;28;20131;-78
2023/08/08 07:45:09;;;;;;;3.20;1.30;;;25.70;71.10;;;;;;6321774;28;20126;-79
2023/08/08 07:48:10;;;;;;;2.50;1.10;;;25.90;70.10;;;;;;6328298;28;20056;-78
2023/08/08 07:51:12;;;;;;;1.45;1.15;;;25.70;70.10;;;;;;6327334;28;20705;-78
2023/08/08 07:54:14;;;;;;;1.58;0.93;;;25.50;69.70;;;;;;6328394;28;20435;-79
2023/08/08 07:57:15;;;;;;;3.75;1.40;;;25.80;70.50;;;;;;6316227;28;20051;-80
2023/08/08 08:00:20;;;;;;;1.48;1.25;;;26.00;68.60;;;;;;6316526;28;20055;-80
2023/08/08 08:03:22;;;;;;;2.25;1.20;;;25.50;69.10;;;;;;6332940;28;20528;-82
2023/08/08 08:06:23;;;;;;;1.75;0.90;;;25.40;68.80;;;;;;6341437;28;20055;-80
2023/08/08 08:09:27;;;;;;;4.05;1.10;;;25.10;69.00;;;;;;6340072;28;20040;-80
2023/08/08 08:12:30;;;;;;;3.75;1.52;;;25.20;69.10;;;;;;6339689;28;20146;-81
2023/08/08 08:15:33;;;;;;;1.50;1.20;;;24.90;68.50;;;;;;6336011;28;20873;-84
2023/08/08 08:18:35;;;;;;;2.30;1.50;;;25.10;69.80;;;;;;6337769;28;20139;-82
2023/08/08 08:21:37;;;;;;;3.92;0.88;;;25.50;68.90;;;;;;6337540;28;20050;-81
2023/08/08 08:24:38;;;;;;;3.25;0.90;;;25.50;68.00;;;;;;6339253;28;20059;-83
2023/08/08 08:27:40;;;;;;;4.10;1.48;;;25.10;68.50;;;;;;6336261;28;20117;-79
2023/08/08 08:30:44;;;;;;;1.10;0.90;;;24.90;69.40;;;;;;6328518;28;20503;-81
2023/08/08 08:33:46;;;;;;;2.15;0.98;;;25.00;69.80;;;;;;6328609;28;20123;-81
2023/08/08 08:36:47;;;;;;;3.78;1.10;;;25.20;69.70;;;;;;6329251;28;20426;-82
2023/08/08 08:39:49;;;;;;;4.88;1.02;;;25.30;69.90;;;;;;6328691;28;20047;-80
2023/08/08 08:42:52;;;;;;;5.53;1.83;;;25.50;68.80;;;;;;6328502;28;20052;-81
2023/08/08 08:45:56;;;;;;;2.28;1.10;;;25.50;68.50;;;;;;6335297;28;20044;-83
2023/08/08 08:48:59;;;;;;;1.98;1.10;;;25.60;68.20;;;;;;6340373;28;20044;-83
2023/08/08 08:52:01;;;;;;;1.65;1.00;;;25.80;67.90;;;;;;6341422;28;20044;-81
2023/08/08 08:55:04;;;;;;;1.50;0.68;;;25.80;68.10;;;;;;6343220;28;20084;-81
2023/08/08 08:58:07;;;;;;;1.73;1.33;;;25.90;68.30;;;;;;6342089;28;20048;-81
2023/08/08 09:01:10;;;;;;;2.30;1.20;;;26.20;67.80;;;;;;6342156;28;20116;-81
2023/08/08 09:04:13;;;;;;;2.65;0.90;;;26.10;67.30;;;;;;6340591;28;20044;-84
2023/08/08 09:07:20;;;;;;;2.53;1.30;;;26.00;67.60;;;;;;6341608;28;20051;-83
2023/08/08 09:10:21;;;;;;;0.93;0.80;;;25.70;66.90;;;;;;6342644;28;20047;-78
2023/08/08 09:13:25;;;;;;;2.90;1.20;;;25.20;66.50;;;;;;6342418;28;20048;-83
2023/08/08 09:16:29;;;;;;;2.92;1.20;;;25.00;67.00;;;;;;6341085;28;20070;-79
2023/08/08 09:19:31;;;;;;;6.38;1.70;;;24.70;67.00;;;;;;6336850;28;20188;-80
2023/08/08 09:22:33;;;;;;;1.83;1.40;;;24.80;68.40;;;;;;6331326;28;20050;-82
2023/08/08 09:25:35;;;;;;;2.08;1.27;;;25.30;67.80;;;;;;6322672;28;20054;-81
2023/08/08 09:28:36;;;;;;;6.25;1.08;;;25.70;66.50;;;;;;6317315;28;20041;-85
2023/08/08 09:31:40;;;;;;;1.65;1.55;;;25.60;65.90;;;;;;6317697;28;20051;-80
2023/08/08 09:34:43;;;;;;;1.00;0.93;;;25.60;66.20;;;;;;6317316;28;20059;-81
2023/08/08 09:37:47;;;;;;;3.10;1.20;;;25.70;66.80;;;;;;6314442;28;20040;-81
2023/08/08 09:40:54;;;;;;;2.05;1.50;;;26.10;66.10;;;;;;6320209;28;20175;-81
2023/08/08 09:43:59;;;;;;;1.88;1.42;;;26.50;65.20;;;;;;6313253;28;20573;-82
2023/08/08 09:47:18;;;;;;;3.63;1.67;;;26.50;64.50;;;;;;6314255;28;20049;-81
2023/08/08 09:50:20;;;;;;;1.92;1.23;;;26.40;63.50;;;;;;6309112;28;20400;-80
2023/08/08 09:53:23;;;;;;;5.70;0.98;;;26.00;64.00;;;;;;6304012;28;20049;-80
2023/08/08 09:56:25;;;;;;;1.17;1.00;;;26.20;63.50;;;;;;6307214;28;20120;-77
2023/08/08 09:59:27;;;;;;;1.48;1.00;;;26.00;63.70;;;;;;6310024;28;20045;-78
2023/08/08 10:02:31;;;;;;;3.05;1.40;;;26.20;63.40;;;;;;6321477;28;20476;-79
2023/08/08 10:05:33;;;;;;;1.63;1.30;;;26.50;63.00;;;;;;6322738;28;20514;-79
2023/08/08 10:08:35;;;;;;;4.53;0.88;;;26.60;62.20;;;;;;6316204;28;20036;-79
2023/08/08 10:11:37;;;;;;;1.27;1.02;;;26.50;62.30;;;;;;6320479;28;20413;-79
2023/08/08 10:14:42;;;;;;;3.85;0.82;;;26.90;62.50;;;;;;6325846;28;20048;-78
2023/08/08 10:17:47;;;;;;;2.78;2.00;;;27.00;61.50;;;;;;6322515;28;20417;-77
2023/08/08 10:20:50;;;;;;;2.15;1.88;;;26.90;61.20;;;;;;6304112;28;20050;-79
2023/08/08 10:24:05;;;;;;;0.98;0.93;;;26.70;60.10;;;;;;6311156;28;20062;-78
2023/08/08 10:27:07;;;;;;;2.38;1.20;;;26.60;60.50;;;;;;6318816;28;20134;-79
2023/08/08 10:30:11;;;;;;;2.40;1.00;;;26.70;60.80;;;;;;6308724;28;20055;-79
2023/08/08 10:33:22;;;;;;;1.67;0.80;;;27.00;60.50;;;;;;6317172;28;20086;-79
2023/08/08 10:36:24;;;;;;;2.63;0.93;;;26.90;60.00;;;;;;6326006;28;20446;-79
2023/08/08 10:39:26;;;;;;;2.10;1.35;;;26.90;59.80;;;;;;6326456;28;20036;-79
2023/08/08 10:42:30;;;;;;;3.67;1.20;;;26.70;59.10;;;;;;6325489;28;20525;-78
2023/08/08 10:45:37;;;;;;;2.15;1.20;;;26.60;58.70;;;;;;6326717;28;20263;-78
2023/08/08 10:48:50;;;;;;;2.00;0.82;;;26.40;58.70;;;;;;6324859;28;20044;-78
2023/08/08 10:51:52;;;;;;;4.57;1.08;;;26.30;59.40;;;;;;6326171;28;20055;-80
2023/08/08 10:54:54;;;;;;;3.65;1.00;;;26.50;58.50;;;;;;6326563;28;20056;-80
2023/08/08 10:57:58;;;;;;;1.70;0.63;;;26.90;56.50;;;;;;6317501;28;20075;-80
2023/08/08 11:01:01;;;;;;;4.05;1.45;;;26.80;54.70;;;;;;6323142;28;20047;-79
2023/08/08 11:04:06;;;;;;;2.65;1.00;;;26.70;54.70;;;;;;6321061;28;20103;-78
2023/08/08 11:07:08;;;;;;;1.95;1.00;;;26.90;54.30;;;;;;6324593;28;20053;-78
2023/08/08 11:10:11;;;;;;;5.07;1.10;;;27.10;54.60;;;;;;6322937;28;20044;-78
2023/08/08 11:13:12;;;;;;;1.40;0.75;;;27.30;54.50;;;;;;6327130;28;20048;-78
2023/08/08 11:16:15;;;;;;;0.95;0.75;;;27.60;54.00;;;;;;6326140;28;20062;-78
2023/08/08 11:19:19;;;;;;;3.10;0.90;;;27.90;53.50;;;;;;6324610;28;20040;-77
2023/08/08 11:22:22;;;;;;;1.52;0.80;;;28.00;52.60;;;;;;6327202;28;20048;-77
2023/08/08 11:25:27;;;;;;;1.23;0.77;;;27.70;52.90;;;;;;6328256;28;20431;-78
2023/08/08 11:28:29;;;;;;;4.97;0.95;;;27.70;53.40;;;;;;6323558;28;20062;-79
2023/08/08 11:31:31;;;;;;;4.10;0.80;;;27.90;53.10;;;;;;6318176;28;20044;-78
2023/08/08 11:34:34;;;;;;;9.52;1.27;;;28.00;53.30;;;;;;6323223;28;20505;-79
2023/08/08 11:37:37;;;;;;;2.50;0.85;;;28.30;53.10;;;;;;6324527;28;20044;-77
2023/08/08 11:40:39;;;;;;;1.98;1.02;;;28.30;53.00;;;;;;6326222;28;20054;-79
2023/08/08 11:43:42;;;;;;;1.77;0.93;;;28.20;52.40;;;;;;6316035;28;20040;-79
2023/08/08 11:46:45;;;;;;;1.65;0.80;;;28.00;52.70;;;;;;6324788;28;20411;-81
2023/08/08 11:49:48;;;;;;;2.78;0.70;;;27.90;52.20;;;;;;6325114;28;20509;-80
2023/08/08 11:52:52;;;;;;;3.22;0.65;;;27.80;52.40;;;;;;6321770;28;20048;-79
2023/08/08 11:55:54;;;;;;;1.63;0.45;;;27.80;53.40;;;;;;6327290;28;20055;-79
2023/08/08 11:58:56;;;;;;;1.27;0.70;;;28.00;53.40;;;;;;6324638;28;20063;-77
2023/08/08 12:01:59;;;;;;;1.38;0.93;;;28.10;54.10;;;;;;6320144;28;20512;-80
2023/08/08 12:05:06;;;;;;;1.17;0.60;;;28.20;53.60;;;;;;6328307;28;20043;-80
2023/08/08 12:08:08;;;;;;;;;;;28.10;53.80;;;;;;6315019;28;20036;-79
2023/08/08 12:11:12;;;;;;;2.40;1.05;;;28.20;54.10;;;;;;6327757;28;19928;-79
2023/08/08 12:14:15;;;;;;;0.80;0.65;;;28.30;54.20;;;;;;6323931;28;20088;-79
2023/08/08 12:17:17;;;;;;;1.08;0.98;;;28.20;54.00;;;;;;6323229;28;20391;-78
2023/08/08 12:20:20;;;;;;;3.25;0.63;;;28.00;54.00;;;;;;6322386;28;20050;-79
2023/08/08 12:23:22;;;;;;;2.20;1.27;;;27.90;52.70;;;;;;6322241;28;20044;-80
2023/08/08 12:26:23;;;;;;;1.42;0.82;;;27.80;52.20;;;;;;6325061;28;20048;-79
2023/08/08 12:29:25;;;;;;;1.25;1.15;;;27.80;52.30;;;;;;6325946;28;20371;-78
2023/08/08 12:32:28;;;;;;;2.28;1.95;;;27.80;52.40;;;;;;6311885;28;20527;-78
2023/08/08 12:35:31;;;;;;;3.03;0.82;;;27.90;52.30;;;;;;6327136;28;20047;-80
2023/08/08 12:38:33;;;;;;;1.30;0.77;;;27.80;51.90;;;;;;6322590;28;20128;-79
2023/08/08 12:41:35;;;;;;;2.13;0.90;;;27.80;51.70;;;;;;6323186;28;20123;-78
2023/08/08 12:44:36;;;;;;;3.53;1.00;;;27.60;52.00;;;;;;6327973;28;20040;-79
2023/08/08 12:47:38;;;;;;;2.67;0.82;;;27.80;52.30;;;;;;6325049;28;20040;-79
2023/08/08 12:50:41;;;;;;;1.92;1.30;;;28.10;52.10;;;;;;6331522;28;20044;-79
2023/08/08 12:53:43;;;;;;;2.08;0.73;;;28.30;51.70;;;;;;6317645;28;20036;-78
2023/08/08 12:56:45;;;;;;;2.90;0.50;;;28.60;51.60;;;;;;6325391;28;20047;-79
2023/08/08 12:59:46;;;;;;;3.03;1.05;;;28.80;51.20;;;;;;6316245;28;20039;-79
2023/08/08 13:02:48;;;;;;;1.02;0.80;;;29.00;50.80;;;;;;6310840;28;20040;-79
2023/08/08 13:05:52;;;;;;;1.00;0.65;;;28.80;49.60;;;;;;6328300;28;20070;-78
2023/08/08 13:08:53;;;;;;;3.95;1.02;;;28.40;49.80;;;;;;6325303;28;20182;-79
2023/08/08 13:11:55;;;;;;;2.78;0.93;;;28.40;50.10;;;;;;6323148;28;20460;-79
2023/08/08 13:14:57;;;;;;;2.45;0.90;;;28.40;49.80;;;;;;6325856;28;20074;-79
2023/08/08 13:17:59;;;;;;;1.58;0.98;;;28.50;50.00;;;;;;6323424;28;20048;-78
2023/08/08 13:21:02;;;;;;;9.50;1.60;;;28.30;50.50;;;;;;6329600;28;20426;-79
2023/08/08 13:24:04;;;;;;;3.33;1.55;;;28.50;50.50;;;;;;6322405;28;20046;-79
2023/08/08 13:27:06;;;;;;;2.63;0.68;;;28.50;50.40;;;;;;6328530;28;20051;-79
2023/08/08 13:30:09;;;;;;;1.30;0.73;;;28.50;50.30;;;;;;6327396;28;20043;-79
2023/08/08 13:33:10;;;;;;;1.90;0.93;;;28.80;50.90;;;;;;6312710;28;20419;-79
2023/08/08 13:36:14;;;;;;;1.10;0.77;;;29.00;49.20;;;;;;6325460;28;20055;-79
2023/08/08 13:39:15;;;;;;;2.58;1.10;;;28.90;48.60;;;;;;6320434;28;20507;-79
2023/08/08 13:42:17;;;;;;;1.45;0.90;;;28.60;48.50;;;;;;6321541;28;20507;-79
2023/08/08 13:45:20;;;;;;;1.23;0.60;;;28.50;48.80;;;;;;6327850;28;20052;-79
2023/08/08 13:48:21;;;;;;;0.93;0.63;;;28.50;48.90;;;;;;6324764;28;20051;-80
2023/08/08 13:51:24;;;;;;;2.67;0.70;;;28.60;48.70;;;;;;6325514;28;20050;-81
2023/08/08 13:54:26;;;;;;;6.05;0.60;;;28.60;48.90;;;;;;6316794;28;20047;-79
2023/08/08 13:57:28;;;;;;;3.90;0.95;;;28.70;49.30;;;;;;6324642;28;20363;-80
2023/08/08 14:00:30;;;;;;;0.40;0.40;;;28.90;49.30;;;;;;6329682;28;20047;-80
2023/08/08 14:03:31;;;;;;;2.03;0.52;;;29.00;48.60;;;;;;6318995;28;20040;-80
2023/08/08 14:06:34;;;;;;;2.35;1.00;;;28.80;48.40;;;;;;6329102;28;20064;-78
2023/08/08 14:09:36;;;;;;;0.85;0.60;;;28.50;48.20;;;;;;6321461;28;20165;-80
2023/08/08 14:12:38;;;;;;;0.90;0.65;;;28.50;48.30;;;;;;6324966;28;20040;-80
2023/08/08 14:15:39;;;;;;;3.75;0.90;;;28.50;48.30;;;;;;6328773;28;20051;-80
2023/08/08 14:18:41;;;;;;;3.03;0.77;;;28.50;49.00;;;;;;6320238;28;20051;-80
2023/08/08 14:21:44;;;;;;;2.67;0.80;;;28.70;48.30;;;;;;6322166;28;20040;-81
2023/08/08 14:24:46;;;;;;;3.50;0.70;;;28.60;48.20;;;;;;6326545;28;20067;-80
2023/08/08 14:27:48;;;;;;;1.67;0.82;;;28.60;48.30;;;;;;6333424;28;20103;-80
2023/08/08 14:30:49;;;;;;;2.95;1.48;;;28.60;47.80;;;;;;6320225;28;20048;-81
2023/08/08 14:33:53;;;;;;;3.55;0.93;;;28.50;47.40;;;;;;6334155;28;20414;-83
2023/08/08 14:36:57;;;;;;;2.67;1.13;;;28.30;47.80;;;;;;6335504;28;20086;-80
2023/08/08 14:39:59;;;;;;;0.90;0.70;;;28.00;48.00;;;;;;6335323;28;20048;-80
2023/08/08 14:43:00;;;;;;;3.78;0.90;;;28.10;48.60;;;;;;6322049;28;20044;-79
2023/08/08 14:46:02;;;;;;;0.88;0.57;;;28.20;48.50;;;;;;6327652;28;20063;-80
2023/08/08 14:49:05;;;;;;;1.20;0.90;;;28.40;48.00;;;;;;6320216;28;20744;-79
2023/08/08 14:52:09;;;;;;;1.30;0.50;;;28.60;48.00;;;;;;6324326;28;20040;-79
2023/08/08 14:55:11;;;;;;;2.40;1.25;;;28.50;47.50;;;;;;6316726;28;20059;-79
2023/08/08 14:58:12;;;;;;;0.40;0.40;;;28.60;47.70;;;;;;6321256;28;20521;-79
2023/08/08 15:01:15;;;;;;;1.15;0.50;;;28.20;47.50;;;;;;6308513;28;20056;-78
2023/08/08 15:04:17;;;;;;;2.55;0.90;;;28.10;48.00;;;;;;6325556;28;20058;-78
2023/08/08 15:07:20;;;;;;;5.85;0.80;;;28.00;48.60;;;;;;6322408;28;20130;-77
2023/08/08 15:10:22;;;;;;;1.30;0.80;;;28.20;48.00;;;;;;6324589;28;20046;-79
2023/08/08 15:13:23;;;;;;;0.77;0.55;;;28.10;48.50;;;;;;6311734;28;20121;-80
2023/08/08 15:16:25;;;;;;;1.25;0.70;;;28.40;48.40;;;;;;6321847;28;20056;-79
2023/08/08 15:19:27;;;;;;;1.52;0.85;;;27.80;48.00;;;;;;6324969;28;20044;-79
2023/08/08 15:22:30;;;;;;;1.38;0.55;;;27.60;48.70;;;;;;6326806;28;20059;-80
2023/08/08 15:25:32;;;;;;;1.83;0.80;;;27.20;49.10;;;;;;6325795;28;20040;-78
2023/08/08 15:28:33;;;;;;;1.65;0.60;;;26.70;49.70;;;;;;6326426;28;20447;-77
2023/08/08 15:31:35;;;;;;;1.85;1.23;;;26.50;50.50;;;;;;6320401;28;20727;-77
2023/08/08 15:34:37;;;;;;;1.48;0.60;;;26.30;51.00;;;;;;6332682;28;20054;-78
2023/08/08 15:37:40;;;;;;;4.68;1.38;;;26.20;51.30;;;;;;6326402;28;20506;-78
2023/08/08 15:40:41;;;;;;;5.15;0.93;;;26.10;52.00;;;;;;6332029;28;20051;-78
2023/08/08 15:43:43;;;;;;;2.33;1.35;;;26.10;52.50;;;;;;6326425;28;20046;-80
2023/08/08 15:46:45;;;;;;;2.47;1.27;;;26.10;52.30;;;;;;6325161;28;20051;-80
2023/08/08 15:49:47;;;;;;;2.03;1.17;;;26.00;52.20;;;;;;6328562;28;20066;-80